createdAt,value
2023-05-14T00:00:20.639Z,12.72
2023-05-14T00:01:20.544Z,12.70
2023-05-14T00:02:20.576Z,12.67
2023-05-14T00:03:20.588Z,12.65
2023-05-14T00:04:20.541Z,12.62
2023-05-14T00:05:20.496Z,12.61
2023-05-14T00:06:20.489Z,12.61
2023-05-14T00:07:20.465Z,12.58
2023-05-14T00:08:20.453Z,12.54
2023-05-14T00:09:20.428Z,12.54
2023-05-14T00:10:20.520Z,12.50
2023-05-14T00:11:20.424Z,12.49
2023-05-14T00:12:20.403Z,12.46
2023-05-14T00:13:20.390Z,12.45
2023-05-14T00:14:20.374Z,12.45
2023-05-14T00:15:20.367Z,12.40
2023-05-14T00:16:20.452Z,12.39
2023-05-14T00:17:20.325Z,12.37
2023-05-14T00:18:20.324Z,12.36
2023-05-14T00:19:20.304Z,12.35
2023-05-14T00:20:20.319Z,12.31
2023-05-14T00:21:20.303Z,12.29
2023-05-14T00:22:20.270Z,12.28
2023-05-14T00:23:20.251Z,12.27
2023-05-14T00:24:20.247Z,12.24
2023-05-14T00:25:20.289Z,12.22
2023-05-14T00:26:20.231Z,12.21
2023-05-14T00:27:20.223Z,12.20
2023-05-14T00:28:20.196Z,12.15
2023-05-14T00:29:20.194Z,12.15
2023-05-14T00:30:20.292Z,12.13
2023-05-14T00:31:20.261Z,12.10
2023-05-14T00:32:20.218Z,12.06
2023-05-14T00:33:20.144Z,12.07
2023-05-14T00:34:20.130Z,12.03
2023-05-14T00:35:20.098Z,12.02
2023-05-14T00:36:20.099Z,12.02
2023-05-14T00:37:20.077Z,11.99
2023-05-14T00:38:20.068Z,11.97
2023-05-14T00:39:20.072Z,11.95
2023-05-14T00:40:20.069Z,11.90
2023-05-14T00:41:20.021Z,11.87
2023-05-14T00:42:20.030Z,11.88
2023-05-14T00:43:20.022Z,11.87
2023-05-14T00:44:20.006Z,11.84
2023-05-14T00:45:19.976Z,11.84
2023-05-14T00:46:20.007Z,11.80
2023-05-14T00:47:19.947Z,11.80
2023-05-14T00:48:19.953Z,11.77
2023-05-14T00:49:19.938Z,11.75
2023-05-14T00:50:19.911Z,11.73
2023-05-14T00:51:19.896Z,11.72
2023-05-14T00:52:19.885Z,11.69
2023-05-14T00:53:19.892Z,11.68
2023-05-14T00:54:19.858Z,11.66
2023-05-14T00:55:19.849Z,11.66
2023-05-14T00:56:19.877Z,11.65
2023-05-14T00:57:19.838Z,11.62
2023-05-14T00:58:19.821Z,11.60
2023-05-14T00:59:19.794Z,11.59
2023-05-14T01:00:19.804Z,11.55
2023-05-14T01:01:19.800Z,11.52
2023-05-14T01:02:19.849Z,11.50
2023-05-14T01:03:19.805Z,11.48
2023-05-14T01:04:19.745Z,11.47
2023-05-14T01:05:19.724Z,11.44
2023-05-14T01:06:19.704Z,11.41
2023-05-14T01:07:19.702Z,11.40
2023-05-14T01:08:19.683Z,11.40
2023-05-14T01:09:19.670Z,11.40
2023-05-14T01:10:19.658Z,11.36
2023-05-14T01:11:19.664Z,11.36
2023-05-14T01:12:19.639Z,11.35
2023-05-14T01:13:19.610Z,11.32
2023-05-14T01:14:19.607Z,11.32
2023-05-14T01:15:19.599Z,11.27
2023-05-14T01:16:19.654Z,11.27
2023-05-14T01:17:19.566Z,11.25
2023-05-14T01:18:19.603Z,11.25
2023-05-14T01:19:19.550Z,11.23
2023-05-14T01:20:19.533Z,11.19
2023-05-14T01:21:19.524Z,11.17
2023-05-14T01:22:19.504Z,11.15
2023-05-14T01:23:19.506Z,11.15
2023-05-14T01:24:19.551Z,11.12
2023-05-14T01:25:19.467Z,11.11
2023-05-14T01:26:19.472Z,11.11
2023-05-14T01:27:19.437Z,11.07
2023-05-14T01:28:19.446Z,11.07
2023-05-14T01:29:19.412Z,11.07
2023-05-14T01:30:19.413Z,11.04
2023-05-14T01:31:19.389Z,11.02
2023-05-14T01:32:19.399Z,10.99
2023-05-14T01:33:19.369Z,10.99
2023-05-14T01:34:19.355Z,10.97
2023-05-14T01:35:19.345Z,10.97
2023-05-14T01:36:19.320Z,10.93
2023-05-14T01:37:19.306Z,10.92
2023-05-14T01:38:19.289Z,10.89
2023-05-14T01:39:19.314Z,10.86
2023-05-14T01:40:19.286Z,10.86
2023-05-14T01:41:19.244Z,10.82
2023-05-14T01:42:19.238Z,10.82
2023-05-14T01:43:19.370Z,10.79
2023-05-14T01:44:19.238Z,10.78
2023-05-14T01:45:19.218Z,10.76
2023-05-14T01:46:19.230Z,10.75
2023-05-14T01:47:19.166Z,10.74
2023-05-14T01:48:19.168Z,10.74
2023-05-14T01:49:19.158Z,10.74
2023-05-14T01:50:19.147Z,10.71
2023-05-14T01:51:19.116Z,10.69
2023-05-14T01:52:19.102Z,10.68
2023-05-14T01:53:19.109Z,10.67
2023-05-14T01:54:19.110Z,10.64
2023-05-14T01:55:19.069Z,10.64
2023-05-14T01:56:19.062Z,10.63
2023-05-14T01:57:19.043Z,10.61
2023-05-14T01:58:19.050Z,10.59
2023-05-14T01:59:19.010Z,10.57
2023-05-14T02:00:19.004Z,10.59
2023-05-14T02:01:19.033Z,10.56
2023-05-14T02:02:18.988Z,10.54
2023-05-14T02:03:18.977Z,10.53
2023-05-14T02:04:19.031Z,10.51
2023-05-14T02:05:18.953Z,10.48
2023-05-14T02:06:18.926Z,10.48
2023-05-14T02:07:18.925Z,10.46
2023-05-14T02:08:18.913Z,10.44
2023-05-14T02:09:18.867Z,10.42
2023-05-14T02:10:26.009Z,10.42
2023-05-14T02:11:25.874Z,10.40
2023-05-14T02:12:25.860Z,10.38
2023-05-14T02:13:25.838Z,10.35
2023-05-14T02:14:18.820Z,10.37
2023-05-14T02:15:18.810Z,10.35
2023-05-14T02:16:18.811Z,10.34
2023-05-14T02:17:18.792Z,10.34
2023-05-14T02:18:18.767Z,10.33
2023-05-14T02:19:18.765Z,10.31
2023-05-14T02:20:18.756Z,10.28
2023-05-14T02:21:18.750Z,10.28
2023-05-14T02:22:18.731Z,10.25
2023-05-14T02:23:19.511Z,10.23
2023-05-14T02:24:18.692Z,10.23
2023-05-14T02:25:18.682Z,10.22
2023-05-14T02:26:18.682Z,10.20
2023-05-14T02:27:18.650Z,10.19
2023-05-14T02:28:18.636Z,10.17
2023-05-14T02:29:18.619Z,10.17
2023-05-14T02:30:18.615Z,10.16
2023-05-14T02:31:18.637Z,10.15
2023-05-14T02:32:18.637Z,10.15
2023-05-14T02:33:18.772Z,10.13
2023-05-14T02:34:18.567Z,10.10
2023-05-14T02:35:18.557Z,10.09
2023-05-14T02:36:18.557Z,10.07
2023-05-14T02:37:18.833Z,10.07
2023-05-14T02:38:18.539Z,10.04
2023-05-14T02:39:18.491Z,10.02
2023-05-14T02:40:18.670Z,10.02
2023-05-14T02:41:18.477Z,9.99
2023-05-14T02:42:18.510Z,9.99
2023-05-14T02:43:18.436Z,9.97
2023-05-14T02:44:18.433Z,9.95
2023-05-14T02:45:18.427Z,9.95
2023-05-14T02:46:18.443Z,9.94
2023-05-14T02:47:18.396Z,9.92
2023-05-14T02:48:18.380Z,9.91
2023-05-14T02:49:18.376Z,9.89
2023-05-14T02:50:18.400Z,9.89
2023-05-14T02:51:18.338Z,9.89
2023-05-14T02:52:18.326Z,9.86
2023-05-14T02:53:18.405Z,9.83
2023-05-14T02:54:18.322Z,9.84
2023-05-14T02:55:18.289Z,9.82
2023-05-14T02:56:18.299Z,9.82
2023-05-14T02:57:18.272Z,9.80
2023-05-14T02:58:18.256Z,9.77
2023-05-14T02:59:18.253Z,9.76
2023-05-14T03:00:18.241Z,9.74
2023-05-14T03:01:18.230Z,9.73
2023-05-14T03:02:18.239Z,9.69
2023-05-14T03:03:18.256Z,9.66
2023-05-14T03:04:18.218Z,9.66
2023-05-14T03:05:18.165Z,9.66
2023-05-14T03:06:18.156Z,9.64
2023-05-14T03:07:18.135Z,9.62
2023-05-14T03:08:18.188Z,9.62
2023-05-14T03:09:18.116Z,9.61
2023-05-14T03:10:18.105Z,9.56
2023-05-14T03:11:18.094Z,9.55
2023-05-14T03:12:18.090Z,9.54
2023-05-14T03:13:18.160Z,9.54
2023-05-14T03:14:18.084Z,9.51
2023-05-14T03:15:18.031Z,9.50
2023-05-14T03:16:18.098Z,9.48
2023-05-14T03:17:18.021Z,9.47
2023-05-14T03:18:18.004Z,9.47
2023-05-14T03:19:17.985Z,9.46
2023-05-14T03:20:17.973Z,9.46
2023-05-14T03:21:17.962Z,9.46
2023-05-14T03:22:17.955Z,9.41
2023-05-14T03:23:17.923Z,9.43
2023-05-14T03:24:17.921Z,9.41
2023-05-14T03:25:17.912Z,9.40
2023-05-14T03:26:17.901Z,9.37
2023-05-14T03:27:17.899Z,9.37
2023-05-14T03:28:17.863Z,9.37
2023-05-14T03:29:17.850Z,9.36
2023-05-14T03:30:17.850Z,9.36
2023-05-14T03:31:17.905Z,9.32
2023-05-14T03:32:17.840Z,9.29
2023-05-14T03:33:17.889Z,9.26
2023-05-14T03:34:17.797Z,9.26
2023-05-14T03:35:17.789Z,9.23
2023-05-14T03:36:17.775Z,9.22
2023-05-14T03:37:17.752Z,9.19
2023-05-14T03:38:17.733Z,9.18
2023-05-14T03:39:17.728Z,9.14
2023-05-14T03:40:17.711Z,9.14
2023-05-14T03:41:17.744Z,9.13
2023-05-14T03:42:17.678Z,9.10
2023-05-14T03:43:17.663Z,9.08
2023-05-14T03:44:17.645Z,9.08
2023-05-14T03:45:17.660Z,9.06
2023-05-14T03:46:17.635Z,9.06
2023-05-14T03:47:17.621Z,9.04
2023-05-14T03:48:17.687Z,9.03
2023-05-14T03:49:17.599Z,9.02
2023-05-14T03:50:17.591Z,9.03
2023-05-14T03:51:17.558Z,9.02
2023-05-14T03:52:17.552Z,9.02
2023-05-14T03:53:17.553Z,9.00
2023-05-14T03:54:17.527Z,8.99
2023-05-14T03:55:17.531Z,8.99
2023-05-14T03:56:17.517Z,8.97
2023-05-14T03:57:17.494Z,8.99
2023-05-14T03:58:17.504Z,8.99
2023-05-14T03:59:17.488Z,8.97
2023-05-14T04:00:17.463Z,8.99
2023-05-14T04:01:17.438Z,8.97
2023-05-14T04:02:17.453Z,8.99
2023-05-14T04:03:17.501Z,8.99
2023-05-14T04:04:17.448Z,8.99
2023-05-14T04:05:17.387Z,8.99
2023-05-14T04:06:17.365Z,8.99
2023-05-14T04:07:17.371Z,8.99
2023-05-14T04:08:17.337Z,8.99
2023-05-14T04:09:17.343Z,8.99
2023-05-14T04:10:17.303Z,8.99
2023-05-14T04:11:17.301Z,8.97
2023-05-14T04:12:17.288Z,8.97
2023-05-14T04:13:17.313Z,8.99
2023-05-14T04:14:17.266Z,9.00
2023-05-14T04:15:17.243Z,8.97
2023-05-14T04:16:17.263Z,8.97
2023-05-14T04:17:17.219Z,8.99
2023-05-14T04:18:17.223Z,9.00
2023-05-14T04:19:17.322Z,9.02
2023-05-14T04:20:17.188Z,9.02
2023-05-14T04:21:17.176Z,9.02
2023-05-14T04:22:17.180Z,9.04
2023-05-14T04:23:17.153Z,9.04
2023-05-14T04:24:17.136Z,9.03
2023-05-14T04:25:17.116Z,9.04
2023-05-14T04:26:17.160Z,9.04
2023-05-14T04:27:17.115Z,9.04
2023-05-14T04:28:17.104Z,9.08
2023-05-14T04:29:17.076Z,9.10
2023-05-14T04:30:17.041Z,9.11
2023-05-14T04:31:17.069Z,9.11
2023-05-14T04:32:17.042Z,9.13
2023-05-14T04:33:17.011Z,9.16
2023-05-14T04:34:17.002Z,9.13
2023-05-14T04:35:16.990Z,9.14
2023-05-14T04:36:16.965Z,9.18
2023-05-14T04:37:16.976Z,9.18
2023-05-14T04:38:16.942Z,9.22
2023-05-14T04:39:16.933Z,9.23
2023-05-14T04:40:16.921Z,9.23
2023-05-14T04:41:16.918Z,9.26
2023-05-14T04:42:16.911Z,9.26
2023-05-14T04:43:16.878Z,9.31
2023-05-14T04:44:16.867Z,9.34
2023-05-14T04:45:16.849Z,9.34
2023-05-14T04:46:16.900Z,9.39
2023-05-14T04:47:16.878Z,9.41
2023-05-14T04:48:16.826Z,9.44
2023-05-14T04:49:16.804Z,9.47
2023-05-14T04:50:16.825Z,9.50
2023-05-14T04:51:16.813Z,9.54
2023-05-14T04:52:16.758Z,9.56
2023-05-14T04:53:17.333Z,9.59
2023-05-14T04:54:16.816Z,9.64
2023-05-14T04:55:16.760Z,9.68
2023-05-14T04:56:16.754Z,9.74
2023-05-14T04:57:16.710Z,9.80
2023-05-14T04:58:16.690Z,9.84
2023-05-14T04:59:16.690Z,9.89
2023-05-14T05:00:16.675Z,9.97
2023-05-14T05:01:16.685Z,10.02
2023-05-14T05:02:16.633Z,10.10
2023-05-14T05:03:16.682Z,10.16
2023-05-14T05:04:16.705Z,10.22
2023-05-14T05:05:16.626Z,10.30
2023-05-14T05:06:16.583Z,10.34
2023-05-14T05:07:16.571Z,10.40
2023-05-14T05:08:16.558Z,10.42
2023-05-14T05:09:16.565Z,10.44
2023-05-14T05:10:16.546Z,10.46
2023-05-14T05:11:16.522Z,10.46
2023-05-14T05:12:16.511Z,10.46
2023-05-14T05:13:16.502Z,10.49
2023-05-14T05:14:16.500Z,10.54
2023-05-14T05:15:16.470Z,10.60
2023-05-14T05:16:16.516Z,10.64
2023-05-14T05:17:16.447Z,10.68
2023-05-14T05:18:16.426Z,10.69
2023-05-14T05:19:16.495Z,10.71
2023-05-14T05:20:16.430Z,10.76
2023-05-14T05:21:16.397Z,10.81
2023-05-14T05:22:16.372Z,10.89
2023-05-14T05:23:16.376Z,10.92
2023-05-14T05:24:16.366Z,11.00
2023-05-14T05:25:16.346Z,11.08
2023-05-14T05:26:16.322Z,11.14
2023-05-14T05:27:16.307Z,11.22
2023-05-14T05:28:16.296Z,11.29
2023-05-14T05:29:16.295Z,11.35
2023-05-14T05:30:16.275Z,11.43
2023-05-14T05:31:17.669Z,11.48
2023-05-14T05:32:16.235Z,11.54
2023-05-14T05:33:16.245Z,11.60
2023-05-14T05:34:16.211Z,11.68
2023-05-14T05:35:16.209Z,11.77
2023-05-14T05:36:16.198Z,11.87
2023-05-14T05:37:16.197Z,11.94
2023-05-14T05:38:16.179Z,12.00
2023-05-14T05:39:16.154Z,12.06
2023-05-14T05:40:16.131Z,12.09
2023-05-14T05:41:16.127Z,12.17
2023-05-14T05:42:16.135Z,12.20
2023-05-14T05:43:16.109Z,12.21
2023-05-14T05:44:16.093Z,12.27
2023-05-14T05:45:16.069Z,12.29
2023-05-14T05:46:16.078Z,12.31
2023-05-14T05:47:16.062Z,12.28
2023-05-14T05:48:16.051Z,12.28
2023-05-14T05:49:16.015Z,12.28
2023-05-14T05:50:16.022Z,12.28
2023-05-14T05:51:16.034Z,12.29
2023-05-14T05:52:15.992Z,12.31
2023-05-14T05:53:15.971Z,12.32
2023-05-14T05:54:15.951Z,12.31
2023-05-14T05:55:15.942Z,12.32
2023-05-14T05:56:15.940Z,12.35
2023-05-14T05:57:15.930Z,12.36
2023-05-14T05:58:15.924Z,12.36
2023-05-14T05:59:15.897Z,12.39
2023-05-14T06:00:15.870Z,12.40
2023-05-14T06:01:15.877Z,12.40
2023-05-14T06:02:15.872Z,12.43
2023-05-14T06:03:15.891Z,12.46
2023-05-14T06:04:15.821Z,12.46
2023-05-14T06:05:15.906Z,12.53
2023-05-14T06:06:15.819Z,12.55
2023-05-14T06:07:15.781Z,12.58
2023-05-14T06:08:15.784Z,12.64
2023-05-14T06:09:15.758Z,12.68
2023-05-14T06:10:15.784Z,12.72
2023-05-14T06:11:15.731Z,12.78
2023-05-14T06:12:15.722Z,12.80
2023-05-14T06:13:15.711Z,12.85
2023-05-14T06:14:15.692Z,12.94
2023-05-14T06:15:15.697Z,13.08
2023-05-14T06:16:15.700Z,13.20
2023-05-14T06:17:15.658Z,13.28
2023-05-14T06:18:15.641Z,13.33
2023-05-14T06:19:15.747Z,13.38
2023-05-14T06:20:15.623Z,13.42
2023-05-14T06:21:15.605Z,13.46
2023-05-14T06:22:15.588Z,13.47
2023-05-14T06:23:15.578Z,13.52
2023-05-14T06:24:15.595Z,13.54
2023-05-14T06:25:15.556Z,13.59
2023-05-14T06:26:15.535Z,13.62
2023-05-14T06:27:15.548Z,13.65
2023-05-14T06:28:15.514Z,13.70
2023-05-14T06:29:15.508Z,13.72
2023-05-14T06:30:15.502Z,13.77
2023-05-14T06:31:15.479Z,13.79
2023-05-14T06:32:15.782Z,13.85
2023-05-14T06:33:15.453Z,13.89
2023-05-14T06:34:15.446Z,13.90
2023-05-14T06:35:15.414Z,13.93
2023-05-14T06:36:15.407Z,13.96
2023-05-14T06:37:15.405Z,13.96
2023-05-14T06:38:15.401Z,13.99
2023-05-14T06:39:15.386Z,14.00
2023-05-14T06:40:15.346Z,14.05
2023-05-14T06:41:15.334Z,14.07
2023-05-14T06:42:15.317Z,14.08
2023-05-14T06:43:15.325Z,14.11
2023-05-14T06:44:15.304Z,14.14
2023-05-14T06:45:15.302Z,14.18
2023-05-14T06:46:15.287Z,14.25
2023-05-14T06:47:15.289Z,14.29
2023-05-14T06:48:15.312Z,14.35
2023-05-14T06:49:15.335Z,14.53
2023-05-14T06:50:15.220Z,14.65
2023-05-14T06:51:15.220Z,14.78
2023-05-14T06:52:15.202Z,15.04
2023-05-14T06:53:15.323Z,15.39
2023-05-14T06:54:15.165Z,15.59
2023-05-14T06:55:15.168Z,15.80
2023-05-14T06:56:15.148Z,16.15
2023-05-14T06:57:15.147Z,16.39
2023-05-14T06:58:15.113Z,16.71
2023-05-14T06:59:15.117Z,16.97
2023-05-14T07:00:15.087Z,17.20
2023-05-14T07:01:15.117Z,17.24
2023-05-14T07:02:15.077Z,17.23
2023-05-14T07:03:15.082Z,17.20
2023-05-14T07:04:15.070Z,17.14
2023-05-14T07:05:15.027Z,17.11
2023-05-14T07:06:15.017Z,17.20
2023-05-14T07:07:14.997Z,17.41
2023-05-14T07:08:14.980Z,17.72
2023-05-14T07:09:14.976Z,17.94
2023-05-14T07:10:14.954Z,17.98
2023-05-14T07:11:14.964Z,18.03
2023-05-14T07:12:14.926Z,18.03
2023-05-14T07:13:14.929Z,18.00
2023-05-14T07:14:14.902Z,17.98
2023-05-14T07:15:14.907Z,17.97
2023-05-14T07:16:14.888Z,17.98
2023-05-14T07:17:14.962Z,18.03
2023-05-14T07:18:14.886Z,18.03
2023-05-14T07:19:14.860Z,18.01
2023-05-14T07:20:14.847Z,18.00
2023-05-14T07:21:14.814Z,17.97
2023-05-14T07:22:14.805Z,17.94
2023-05-14T07:23:14.788Z,17.92
2023-05-14T07:24:14.771Z,17.87
2023-05-14T07:25:14.778Z,17.86
2023-05-14T07:26:14.755Z,17.86
2023-05-14T07:27:14.730Z,17.86
2023-05-14T07:28:14.770Z,17.90
2023-05-14T07:29:14.737Z,17.97
2023-05-14T07:30:14.712Z,18.00
2023-05-14T07:31:14.744Z,18.03
2023-05-14T07:32:15.726Z,18.07
2023-05-14T07:33:14.649Z,18.11
2023-05-14T07:34:14.649Z,18.16
2023-05-14T07:35:14.625Z,18.22
2023-05-14T07:36:14.618Z,18.26
2023-05-14T07:37:14.600Z,18.38
2023-05-14T07:38:14.596Z,18.50
2023-05-14T07:39:14.593Z,18.56
2023-05-14T07:40:14.574Z,18.65
2023-05-14T07:41:14.567Z,18.81
2023-05-14T07:42:24.590Z,18.90
2023-05-14T07:43:15.545Z,18.93
2023-05-14T07:44:14.523Z,18.95
2023-05-14T07:45:14.495Z,18.96
2023-05-14T07:46:14.486Z,18.95
2023-05-14T07:47:14.520Z,18.96
2023-05-14T07:48:14.575Z,19.00
2023-05-14T07:49:14.441Z,19.08
2023-05-14T07:50:14.435Z,19.18
2023-05-14T07:51:14.412Z,19.27
2023-05-14T07:52:14.401Z,19.37
2023-05-14T07:53:14.409Z,19.45
2023-05-14T07:54:14.377Z,19.48
2023-05-14T07:55:14.353Z,19.51
2023-05-14T07:56:14.349Z,19.51
2023-05-14T07:57:14.347Z,19.54
2023-05-14T07:58:14.330Z,19.51
2023-05-14T07:59:14.310Z,19.52
2023-05-14T08:00:14.303Z,19.55
2023-05-14T08:01:14.289Z,19.58
2023-05-14T08:02:14.345Z,19.59
2023-05-14T08:03:14.381Z,19.63
2023-05-14T08:04:14.298Z,19.64
2023-05-14T08:05:14.248Z,19.64
2023-05-14T08:06:14.218Z,19.66
2023-05-14T08:07:14.218Z,19.67
2023-05-14T08:08:14.203Z,19.69
2023-05-14T08:09:14.182Z,19.74
2023-05-14T08:10:14.168Z,19.81
2023-05-14T08:11:14.179Z,19.89
2023-05-14T08:12:14.167Z,19.96
2023-05-14T08:13:14.144Z,20.04
2023-05-14T08:14:14.123Z,20.06
2023-05-14T08:15:14.100Z,20.09
2023-05-14T08:16:14.106Z,20.09
2023-05-14T08:17:14.166Z,20.11
2023-05-14T08:18:14.068Z,20.13
2023-05-14T08:19:14.275Z,20.19
2023-05-14T08:20:14.055Z,20.22
2023-05-14T08:21:14.033Z,20.28
2023-05-14T08:22:14.012Z,20.31
2023-05-14T08:23:14.113Z,20.34
2023-05-14T08:24:13.979Z,20.36
2023-05-14T08:25:13.990Z,20.34
2023-05-14T08:26:13.990Z,20.34
2023-05-14T08:27:13.940Z,20.28
2023-05-14T08:28:13.929Z,20.26
2023-05-14T08:29:20.933Z,20.25
2023-05-14T08:30:20.974Z,20.25
2023-05-14T08:31:20.934Z,20.26
2023-05-14T08:32:22.718Z,20.36
2023-05-14T08:33:14.863Z,20.39
2023-05-14T08:34:13.862Z,20.39
2023-05-14T08:35:13.856Z,20.40
2023-05-14T08:36:13.836Z,20.40
2023-05-14T08:37:13.811Z,20.40
2023-05-14T08:38:13.814Z,20.40
2023-05-14T08:39:13.799Z,20.37
2023-05-14T08:40:13.797Z,20.40
2023-05-14T08:41:13.764Z,20.39
2023-05-14T08:42:13.827Z,20.37
2023-05-14T08:43:13.738Z,20.39
2023-05-14T08:44:13.738Z,20.39
2023-05-14T08:45:13.722Z,20.41
2023-05-14T08:46:13.704Z,20.43
2023-05-14T08:47:13.685Z,20.43
2023-05-14T08:48:13.719Z,20.47
2023-05-14T08:49:13.749Z,20.50
2023-05-14T08:50:13.641Z,20.55
2023-05-14T08:51:13.628Z,20.58
2023-05-14T08:52:13.644Z,20.62
2023-05-14T08:53:13.619Z,20.65
2023-05-14T08:54:13.608Z,20.69
2023-05-14T08:55:13.576Z,20.74
2023-05-14T08:56:13.571Z,20.78
2023-05-14T08:57:13.553Z,20.85
2023-05-14T08:58:13.560Z,20.90
2023-05-14T08:59:13.523Z,20.96
2023-05-14T09:00:13.554Z,21.00
2023-05-14T09:01:13.504Z,21.06
2023-05-14T09:02:13.634Z,21.15
2023-05-14T09:03:13.559Z,21.24
2023-05-14T09:04:13.491Z,21.33
2023-05-14T09:05:13.499Z,21.42
2023-05-14T09:06:13.458Z,21.52
2023-05-14T09:07:13.433Z,21.66
2023-05-14T09:08:13.417Z,21.76
2023-05-14T09:09:13.395Z,21.83
2023-05-14T09:10:13.399Z,21.95
2023-05-14T09:11:13.369Z,22.02
2023-05-14T09:12:13.374Z,22.10
2023-05-14T09:13:13.343Z,22.18
2023-05-14T09:14:13.333Z,22.26
2023-05-14T09:15:13.311Z,22.32
2023-05-14T09:16:13.370Z,22.38
2023-05-14T09:17:13.309Z,22.44
2023-05-14T09:18:13.313Z,22.48
2023-05-14T09:19:13.321Z,22.48
2023-05-14T09:20:13.262Z,22.53
2023-05-14T09:21:13.244Z,22.55
2023-05-14T09:22:13.246Z,22.57
2023-05-14T09:23:13.213Z,22.57
2023-05-14T09:24:13.211Z,22.60
2023-05-14T09:25:13.240Z,22.63
2023-05-14T09:26:13.192Z,22.68
2023-05-14T09:27:13.162Z,22.69
2023-05-14T09:28:13.161Z,22.72
2023-05-14T09:29:13.136Z,22.72
2023-05-14T09:30:13.142Z,22.73
2023-05-14T09:31:13.158Z,22.76
2023-05-14T09:32:13.108Z,22.78
2023-05-14T09:33:13.083Z,22.81
2023-05-14T09:34:13.066Z,22.85
2023-05-14T09:35:13.079Z,22.90
2023-05-14T09:36:13.068Z,22.94
2023-05-14T09:37:13.046Z,23.02
2023-05-14T09:38:13.045Z,23.13
2023-05-14T09:39:13.008Z,23.27
2023-05-14T09:40:13.013Z,23.39
2023-05-14T09:41:13.003Z,23.66
2023-05-14T09:42:12.972Z,24.02
2023-05-14T09:43:13.002Z,24.39
2023-05-14T09:44:12.961Z,24.73
2023-05-14T09:45:12.935Z,24.93
2023-05-14T09:46:12.920Z,25.07
2023-05-14T09:47:12.953Z,25.21
2023-05-14T09:48:12.970Z,25.29
2023-05-14T09:49:12.902Z,25.44
2023-05-14T09:50:13.134Z,25.55
2023-05-14T09:51:12.862Z,25.93
2023-05-14T09:52:12.846Z,26.06
2023-05-14T09:53:12.837Z,26.38
2023-05-14T09:54:12.834Z,26.74
2023-05-14T09:55:12.840Z,26.99
2023-05-14T09:56:12.791Z,27.15
2023-05-14T09:57:12.786Z,27.18
2023-05-14T09:58:12.789Z,27.37
2023-05-14T09:59:12.786Z,27.73
2023-05-14T10:00:12.810Z,28.10
2023-05-14T10:01:12.776Z,28.41
2023-05-14T10:02:12.730Z,28.64
2023-05-14T10:03:12.738Z,28.82
2023-05-14T10:04:12.793Z,29.04
2023-05-14T10:05:12.671Z,29.29
2023-05-14T10:06:12.674Z,29.53
2023-05-14T10:07:12.657Z,29.66
2023-05-14T10:08:12.681Z,29.59
2023-05-14T10:09:12.681Z,29.59
2023-05-14T10:10:12.608Z,29.54
2023-05-14T10:11:12.611Z,29.42
2023-05-14T10:12:12.593Z,29.38
2023-05-14T10:13:12.602Z,29.44
2023-05-14T10:14:12.557Z,29.54
2023-05-14T10:15:12.531Z,29.69
2023-05-14T10:16:12.530Z,29.94
2023-05-14T10:17:12.672Z,30.19
2023-05-14T10:18:12.586Z,30.43
2023-05-14T10:19:12.553Z,30.54
2023-05-14T10:20:12.482Z,30.54
2023-05-14T10:21:12.473Z,30.63
2023-05-14T10:22:12.487Z,30.70
2023-05-14T10:23:12.457Z,30.85
2023-05-14T10:24:12.432Z,30.92
2023-05-14T10:25:12.421Z,30.80
2023-05-14T10:26:12.398Z,30.78
2023-05-14T10:27:12.389Z,30.90
2023-05-14T10:28:12.372Z,31.03
2023-05-14T10:29:12.356Z,31.07
2023-05-14T10:30:12.353Z,30.87
2023-05-14T10:31:12.370Z,30.57
2023-05-14T10:32:12.342Z,30.21
2023-05-14T10:33:12.426Z,29.90
2023-05-14T10:34:12.302Z,29.72
2023-05-14T10:35:12.283Z,29.57
2023-05-14T10:36:12.291Z,29.69
2023-05-14T10:37:12.285Z,29.87
2023-05-14T10:38:12.241Z,30.08
2023-05-14T10:39:12.231Z,30.21
2023-05-14T10:40:12.230Z,30.09
2023-05-14T10:41:12.214Z,30.03
2023-05-14T10:42:12.200Z,30.10
2023-05-14T10:43:12.218Z,29.84
2023-05-14T10:44:12.169Z,29.73
2023-05-14T10:45:12.173Z,29.87
2023-05-14T10:46:12.200Z,30.00
2023-05-14T10:47:12.130Z,30.15
2023-05-14T10:48:12.211Z,30.27
2023-05-14T10:49:12.106Z,30.35
2023-05-14T10:50:12.104Z,30.46
2023-05-14T10:51:12.177Z,30.50
2023-05-14T10:52:12.075Z,30.53
2023-05-14T10:53:12.059Z,30.53
2023-05-14T10:54:12.052Z,30.53
2023-05-14T10:55:12.036Z,30.54
2023-05-14T10:56:12.026Z,30.46
2023-05-14T10:57:12.101Z,30.37
2023-05-14T10:58:11.984Z,30.34
2023-05-14T10:59:11.984Z,30.35
2023-05-14T11:00:11.975Z,30.35
2023-05-14T11:01:11.964Z,30.31
2023-05-14T11:02:11.986Z,30.21
2023-05-14T11:03:11.975Z,30.19
2023-05-14T11:04:12.022Z,30.15
2023-05-14T11:05:11.886Z,30.09
2023-05-14T11:06:11.894Z,29.97
2023-05-14T11:07:11.866Z,29.90
2023-05-14T11:08:11.894Z,29.88
2023-05-14T11:09:11.854Z,29.88
2023-05-14T11:10:11.836Z,29.79
2023-05-14T11:11:11.825Z,29.72
2023-05-14T11:12:11.805Z,29.65
2023-05-14T11:13:11.811Z,29.57
2023-05-14T11:14:11.873Z,29.56
2023-05-14T11:15:11.801Z,29.57
2023-05-14T11:16:22.549Z,29.61
2023-05-14T11:17:12.802Z,29.66
2023-05-14T11:18:11.817Z,29.71
2023-05-14T11:19:11.785Z,29.75
2023-05-14T11:20:11.784Z,29.76
2023-05-14T11:21:11.711Z,29.78
2023-05-14T11:22:11.671Z,29.75
2023-05-14T11:23:11.679Z,29.75
2023-05-14T11:24:11.723Z,29.75
2023-05-14T11:25:11.692Z,29.75
2023-05-14T11:26:11.708Z,29.78
2023-05-14T11:27:11.617Z,29.82
2023-05-14T11:28:11.609Z,29.86
2023-05-14T11:29:11.589Z,29.86
2023-05-14T11:30:11.579Z,29.87
2023-05-14T11:31:11.677Z,29.88
2023-05-14T11:32:11.593Z,29.88
2023-05-14T11:33:11.599Z,29.91
2023-05-14T11:34:11.523Z,29.93
2023-05-14T11:35:11.531Z,29.93
2023-05-14T11:36:11.544Z,29.95
2023-05-14T11:37:11.494Z,29.78
2023-05-14T11:38:11.564Z,29.57
2023-05-14T11:39:11.460Z,29.38
2023-05-14T11:40:11.478Z,29.20
2023-05-14T11:41:11.496Z,29.02
2023-05-14T11:42:11.600Z,28.85
2023-05-14T11:43:11.495Z,28.78
2023-05-14T11:44:11.399Z,28.69
2023-05-14T11:45:11.390Z,28.63
2023-05-14T11:46:11.467Z,28.63
2023-05-14T11:47:11.426Z,28.51
2023-05-14T11:48:11.443Z,28.39
2023-05-14T11:49:11.542Z,28.26
2023-05-14T11:50:11.332Z,28.14
2023-05-14T11:51:11.328Z,27.98
2023-05-14T11:52:11.282Z,27.86
2023-05-14T11:53:11.322Z,27.74
2023-05-14T11:54:11.257Z,27.64
2023-05-14T11:55:11.276Z,27.52
2023-05-14T11:56:11.338Z,27.42
2023-05-14T11:57:11.223Z,27.33
2023-05-14T11:58:11.202Z,27.25
2023-05-14T11:59:11.207Z,27.15
2023-05-14T12:00:11.213Z,27.10
2023-05-14T12:01:11.185Z,27.03
2023-05-14T12:02:11.191Z,26.96
2023-05-14T12:03:11.239Z,26.88
2023-05-14T12:04:11.181Z,26.78
2023-05-14T12:05:11.127Z,26.73
2023-05-14T12:06:11.098Z,26.65
2023-05-14T12:07:11.175Z,26.58
2023-05-14T12:08:11.097Z,26.52
2023-05-14T12:09:11.101Z,26.43
2023-05-14T12:10:11.070Z,26.37
2023-05-14T12:11:11.123Z,26.34
2023-05-14T12:12:11.068Z,26.29
2023-05-14T12:13:11.042Z,26.23
2023-05-14T12:14:11.003Z,26.19
2023-05-14T12:15:10.986Z,26.13
2023-05-14T12:16:11.037Z,26.07
2023-05-14T12:17:10.956Z,25.99
2023-05-14T12:18:23.038Z,25.93
2023-05-14T12:19:12.012Z,25.90
2023-05-14T12:20:10.920Z,25.85
2023-05-14T12:21:10.911Z,25.83
2023-05-14T12:22:10.890Z,25.80
2023-05-14T12:23:10.890Z,25.77
2023-05-14T12:24:10.900Z,25.72
2023-05-14T12:25:10.849Z,25.68
2023-05-14T12:26:10.841Z,25.65
2023-05-14T12:27:10.832Z,25.63
2023-05-14T12:28:10.855Z,25.59
2023-05-14T12:29:10.814Z,25.55
2023-05-14T12:30:20.739Z,25.53
2023-05-14T12:31:11.791Z,25.48
2023-05-14T12:32:10.757Z,25.46
2023-05-14T12:33:10.822Z,25.41
2023-05-14T12:34:10.733Z,25.38
2023-05-14T12:35:10.726Z,25.33
2023-05-14T12:36:21.395Z,25.33
2023-05-14T12:37:11.716Z,25.29
2023-05-14T12:38:10.752Z,25.29
2023-05-14T12:39:10.677Z,25.29
2023-05-14T12:40:10.681Z,25.28
2023-05-14T12:41:10.645Z,25.28
2023-05-14T12:42:10.645Z,25.29
2023-05-14T12:43:10.635Z,25.29
2023-05-14T12:44:10.598Z,25.29
2023-05-14T12:45:10.610Z,25.26
2023-05-14T12:46:10.579Z,25.25
2023-05-14T12:47:10.627Z,25.26
2023-05-14T12:48:10.641Z,25.31
2023-05-14T12:49:10.551Z,25.32
2023-05-14T12:50:10.529Z,25.35
2023-05-14T12:51:10.587Z,25.40
2023-05-14T12:53:10.554Z,25.48
2023-05-14T12:54:10.477Z,25.55
2023-05-14T12:55:10.479Z,25.59
2023-05-14T12:56:10.457Z,25.62
2023-05-14T12:57:10.435Z,25.65
2023-05-14T12:58:10.433Z,25.72